Time;durP1;ratioP1;P1;durP2;ratioP2;P2;SDS_P1;SDS_P2;PMS_P1;PMS_P2;Temp;Humidity;BMP_temperature;BMP_pressure;BME280_temperature;BME280_humidity;BME280_pressure;Samples;Min_cycle;Max_cycle;Signal;HPM_P1;HPM_P2
2023/06/22 00:02:28;;;;;;;36.40;33.10;;;;;;;21.49;73.95;100632.79;110084;1264;21992;-85
2023/06/22 00:06:22;;;;;;;39.20;35.60;;;;;;;21.43;74.28;100635.58;110479;1264;21994;-83
2023/06/22 00:18:50;;;;;;;;;;;;;;;;;;;;;
2023/06/22 00:22:41;;;;;;;;;;;;;;;;;;;;;
2023/06/22 00:25:41;;;;;;;40.30;36.80;;;;;;;21.15;75.09;100642.30;110594;1259;22753;-85
2023/06/22 00:34:25;;;;;;;37.20;34.20;;;;;;;21.07;75.25;100644.17;109799;1271;22660;-83
2023/06/22 00:41:58;;;;;;;37.40;34.30;;;;;;;20.98;75.12;100655.29;108842;1281;22003;-84
2023/06/22 00:44:52;;;;;;;37.20;33.90;;;;;;;20.94;75.33;100658.62;108921;1281;23886;-87
2023/06/22 00:48:47;;;;;;;;;;;;;;;;;;;;;
2023/06/22 00:53:13;;;;;;;36.00;33.00;;;;;;;20.87;75.44;100667.66;109464;1273;23117;-88
2023/06/22 00:57:06;;;;;;;40.10;36.50;;;;;;;20.81;75.69;100665.03;108943;1282;22039;-86
2023/06/22 01:00:29;;;;;;;37.30;34.20;;;;;;;20.81;75.72;100662.11;109048;1278;23696;-82
2023/06/22 01:08:11;;;;;;;37.00;33.60;;;;;;;20.74;75.85;100655.88;109708;1271;22018;-86
2023/06/22 01:37:19;;;;;;;;;;;;;;;;;;;;;
2023/06/22 01:42:20;;;;;;;;;;;;;;;;;;;;;
2023/06/22 01:46:34;;;;;;;39.50;36.20;;;;;;;20.94;73.80;100680.92;112300;1249;21982;-86
2023/06/22 01:51:23;;;;;;;39.90;36.50;;;;;;;20.74;74.38;100686.70;111616;1254;21991;-87
2023/06/22 01:54:54;;;;;;;;;;;;;;;;;;;;;
2023/06/22 01:57:54;;;;;;;41.90;38.40;;;;;;;20.57;74.93;100693.92;109972;1266;21997;-83
2023/06/22 02:01:31;;;;;;;42.00;38.20;;;;;;;20.54;75.13;100692.20;110214;1265;21981;-87
2023/06/22 02:05:08;;;;;;;44.10;40.20;;;;;;;20.47;75.40;100694.27;110341;1265;21979;-84
2023/06/22 02:08:05;;;;;;;41.90;38.40;;;;;;;20.37;75.57;100685.61;109419;1270;23069;-86
2023/06/22 02:21:37;;;;;;;41.10;37.30;;;;;;;21.48;72.34;100694.68;108531;1280;547907;-86
2023/06/22 02:24:23;;;;;;;41.80;38.30;;;;;;;21.60;71.49;100712.47;105733;1266;5372698;-85
2023/06/22 02:27:47;;;;;;;44.30;40.50;;;;;;;21.15;72.47;100712.58;110112;1266;21982;-84
2023/06/22 02:30:38;;;;;;;42.50;38.70;;;;;;;20.92;73.12;100712.34;110178;1266;21985;-82
2023/06/22 02:33:15;;;;;;;43.10;39.30;;;;;;;20.80;73.66;100718.39;110135;1266;22006;-82
2023/06/22 02:35:50;;;;;;;44.80;41.10;;;;;;;20.70;74.06;100721.60;111235;1252;21986;-83
2023/06/22 02:38:34;;;;;;;42.80;39.30;;;;;;;20.61;74.25;100726.16;110742;1260;21981;-84
2023/06/22 02:41:30;;;;;;;43.80;40.30;;;;;;;20.53;74.50;100725.27;110786;1260;23024;-83
2023/06/22 02:44:16;;;;;;;44.50;40.70;;;;;;;20.44;74.87;100725.42;110703;1260;21968;-83
2023/06/22 02:47:12;;;;;;;;;;;;;;;;;;;;;
2023/06/22 02:50:14;;;;;;;45.60;41.80;;;;;;;20.34;75.18;100735.33;110929;1260;21998;-82
2023/06/22 02:53:25;;;;;;;44.60;40.90;;;;;;;20.28;75.51;100736.48;110873;1260;21970;-83
2023/06/22 02:56:25;;;;;;;46.80;42.80;;;;;;;20.28;75.63;100737.75;110695;1260;22319;-82
2023/06/22 02:59:39;;;;;;;46.50;42.50;;;;;;;20.25;75.82;100731.58;110864;1260;21961;-83
2023/06/22 03:02:47;;;;;;;45.90;41.80;;;;;;;20.23;75.97;100728.56;110524;1259;23842;-82
2023/06/22 03:06:02;;;;;;;;;;;;;;;;;;;;;
2023/06/22 03:09:12;;;;;;;43.90;39.80;;;;;;;20.20;76.16;100734.11;110117;1269;22138;-82
2023/06/22 03:12:33;;;;;;;43.50;40.10;;;;;;;20.17;76.24;100742.43;109756;1269;21985;-82
2023/06/22 03:15:25;;;;;;;48.20;44.00;;;;;;;20.17;76.48;100747.90;110011;1270;23663;-83
2023/06/22 03:18:28;;;;;;;45.90;41.40;;;;;;;20.19;76.49;100749.11;109120;1266;23043;-84
2023/06/22 03:21:44;;;;;;;49.80;45.40;;;;;;;20.22;76.74;100747.69;109450;1272;21999;-84
2023/06/22 03:25:22;;;;;;;;;;;;;;;;;;;;;
2023/06/22 03:28:30;;;;;;;;;;;;;;;20.29;77.02;100760.27;110009;1270;23071;-83
2023/06/22 03:31:24;;;;;;;50.20;45.90;;;;;;;20.28;77.21;100760.69;109700;1270;22278;-82
2023/06/22 03:34:24;;;;;;;46.60;42.60;;;;;;;20.32;77.15;100761.13;109877;1268;21973;-82
2023/06/22 03:37:16;;;;;;;43.70;39.90;;;;;;;20.38;77.15;100763.02;109992;1265;21964;-84
2023/06/22 03:40:44;;;;;;;46.20;42.20;;;;;;;20.43;76.99;100764.55;109981;1260;21971;-80
2023/06/22 03:43:51;;;;;;;;;;;;;;;;;;;;;
2023/06/22 03:46:59;;;;;;;42.50;38.80;;;;;;;20.50;76.64;100768.48;110325;1265;23609;-82
2023/06/22 03:49:46;;;;;;;40.50;37.20;;;;;;;20.47;76.50;100763.57;110098;1265;22017;-81
2023/06/22 03:52:32;;;;;;;45.40;41.50;;;;;;;20.50;76.52;100767.25;110621;1265;21927;-83
2023/06/22 03:55:23;;;;;;;42.90;39.40;;;;;;;20.55;76.53;100772.34;109821;1265;21979;-81
2023/06/22 03:58:12;;;;;;;43.50;39.80;;;;;;;20.60;76.51;100774.01;110222;1265;23712;-82
2023/06/22 04:01:16;;;;;;;42.20;38.80;;;;;;;20.67;76.56;100775.45;110680;1260;21938;-82
2023/06/22 04:04:15;;;;;;;42.80;38.90;;;;;;;20.75;76.55;100781.91;110840;1260;23404;-83
2023/06/22 04:07:25;;;;;;;40.40;37.30;;;;;;;20.80;76.52;100784.00;111225;1256;23567;-84
2023/06/22 04:10:03;;;;;;;;;;;;;;;20.85;76.11;100792.33;110715;1261;21962;-83
2023/06/22 04:12:39;;;;;;;39.70;36.30;;;;;;;20.78;76.29;100794.56;110992;1261;23718;-82
2023/06/22 04:15:33;;;;;;;42.10;38.40;;;;;;;20.85;76.33;100803.05;110479;1261;23615;-82
2023/06/22 04:18:22;;;;;;;42.40;39.10;;;;;;;20.93;76.30;100803.07;110370;1267;21980;-81
2023/06/22 04:21:23;;;;;;;41.10;37.50;;;;;;;20.98;76.16;100805.14;110180;1267;21979;-82
2023/06/22 04:24:06;;;;;;;41.60;38.10;;;;;;;21.04;76.11;100806.97;110098;1266;21977;-81
2023/06/22 04:27:10;;;;;;;41.50;38.20;;;;;;;21.12;76.16;100810.29;110317;1266;21989;-80
2023/06/22 04:30:10;;;;;;;40.40;37.30;;;;;;;21.19;76.01;100814.90;110805;1262;22069;-79
2023/06/22 04:33:18;;;;;;;40.20;37.00;;;;;;;21.26;75.86;100816.48;110756;1262;22319;-78
2023/06/22 04:36:00;;;;;;;40.70;37.30;;;;;;;21.31;75.62;100824.48;109846;1263;22365;-79
2023/06/22 04:38:45;;;;;;;39.20;36.10;;;;;;;21.35;75.30;100828.06;110389;1262;21995;-80
2023/06/22 04:42:00;;;;;;;42.40;38.70;;;;;;;21.38;75.20;100831.85;110759;1263;21992;-81
2023/06/22 04:49:22;;;;;;;;;;;;;;;;;;;;;
2023/06/22 04:52:30;;;;;;;35.70;32.90;;;;;;;21.49;74.91;100836.38;110676;1249;23741;-83
2023/06/22 04:55:46;;;;;;;37.00;34.00;;;;;;;21.54;74.77;100833.23;111207;1256;22963;-81
2023/06/22 05:07:16;;;;;;;;;;;;;;;;;;;;;
2023/06/22 05:10:08;;;;;;;24.20;22.20;;;;;;;21.88;73.23;100839.97;109444;1276;23787;-80
2023/06/22 05:12:54;;;;;;;23.20;21.30;;;;;;;22.00;72.51;100840.80;109011;1276;23647;-80
2023/06/22 05:16:23;;;;;;;21.40;19.30;;;;;;;22.08;71.53;100843.72;108949;1276;23795;-83
2023/06/22 05:19:43;;;;;;;;;;;;;;;;;;;;;
2023/06/22 05:22:38;;;;;;;;;;;;;;;;;;;;;
2023/06/22 05:27:04;;;;;;;;;;;;;;;;;;;;;
2023/06/22 05:52:58;;;;;;;15.30;13.90;;;;;;;26.01;55.54;100828.98;111391;1258;23705;-85
2023/06/22 06:07:08;;;;;;;17.00;14.50;;;;;;;26.45;53.48;100834.45;110742;1263;22001;-87
2023/06/22 06:37:43;;;;;;;12.40;11.20;;;;;;;28.51;46.39;100843.96;111624;1259;21968;-83
2023/06/22 06:42:05;;;;;;;11.70;10.70;;;;;;;28.48;46.60;100843.09;112646;1242;21979;-82
2023/06/22 06:52:07;;;;;;;;;;;;;;;;;;;;;
2023/06/22 07:00:57;;;;;;;;;;;;;;;;;;;;;
2023/06/22 07:07:24;;;;;;;8.60;7.90;;;;;;;29.28;44.47;100828.05;108686;1283;22032;-83
2023/06/22 07:11:00;;;;;;;9.00;7.70;;;;;;;29.35;44.23;100834.23;108747;1282;22029;-85
2023/06/22 07:14:40;;;;;;;;;;;;;;;;;;;;;
2023/06/22 07:32:32;;;;;;;10.60;5.80;;;;;;;31.02;37.97;100832.41;110690;1254;548184;-78
2023/06/22 07:35:47;;;;;;;6.60;5.80;;;;;;;31.21;36.83;100831.98;107866;1245;5244373;-77
2023/06/22 07:38:18;;;;;;;6.10;5.30;;;;;;;31.02;37.10;100838.70;112302;1245;21952;-81
2023/06/22 07:40:53;;;;;;;9.10;5.10;;;;;;;30.99;37.40;100842.67;112263;1245;21995;-80
2023/06/22 07:43:36;;;;;;;7.80;6.00;;;;;;;31.03;37.18;100844.77;111630;1250;21958;-79
2023/06/22 07:46:56;;;;;;;6.80;5.70;;;;;;;30.98;37.03;100847.46;110983;1255;23032;-79
2023/06/22 07:50:31;;;;;;;6.60;5.40;;;;;;;30.97;37.31;100853.36;111957;1247;21961;-81
2023/06/22 07:54:26;;;;;;;;;;;;;;;;;;;;;
2023/06/22 07:59:16;;;;;;;4.00;3.60;;;;;;;30.79;37.04;100846.58;111203;1256;22003;-79
2023/06/22 08:29:06;;;;;;;;;;;;;;;;;;;;;
2023/06/22 08:39:19;;;;;;;;;;;;;;;;;;;;;
2023/06/22 08:43:39;;;;;;;;;;;;;;;;;;;;;
2023/06/22 08:56:47;;;;;;;;;;;;;;;;;;;;;
2023/06/22 09:15:39;;;;;;;4.10;3.50;;;;;;;31.46;30.38;100838.75;107867;1250;21961;-78
2023/06/22 09:18:36;;;;;;;9.60;3.60;;;;;;;31.11;31.41;100837.61;111706;1248;21984;-77
2023/06/22 09:22:16;;;;;;;;;;;;;;;;;;;;;
2023/06/22 09:25:29;;;;;;;5.50;3.90;;;;;;;30.74;32.40;100840.48;111366;1250;22005;-79
2023/06/22 09:28:53;;;;;;;4.40;3.20;;;;;;;30.65;32.57;100843.05;111284;1254;21955;-79
2023/06/22 09:32:08;;;;;;;5.60;3.50;;;;;;;30.56;32.06;100844.00;111642;1254;21958;-78
2023/06/22 09:35:12;;;;;;;3.90;2.80;;;;;;;30.46;32.04;100839.77;110899;1258;23795;-77
2023/06/22 09:39:06;;;;;;;9.10;2.30;;;;;;;30.50;31.23;100829.47;107769;1293;548058;-78
2023/06/22 09:42:34;;;;;;;6.90;3.10;;;;;;;30.22;31.73;100827.41;109840;1269;22403;-78
2023/06/22 09:45:34;;;;;;;4.30;2.50;;;;;;;30.17;32.21;100821.51;111136;1259;21947;-79
2023/06/22 09:49:53;;;;;;;6.40;2.60;;;;;;;30.20;32.30;100815.08;111034;1259;22299;-80
2023/06/22 09:53:34;;;;;;;7.40;3.00;;;;;;;30.22;32.49;100806.20;108752;1262;2892837;-80
2023/06/22 09:56:43;;;;;;;6.00;4.00;;;;;;;30.25;32.25;100798.38;109708;1272;23056;-80
2023/06/22 09:59:59;;;;;;;3.90;3.20;;;;;;;30.16;31.60;100795.94;109769;1272;21987;-81
2023/06/22 10:04:02;;;;;;;;;;;;;;;;;;;;;
2023/06/22 10:08:09;;;;;;;3.70;2.90;;;;;;;29.88;32.07;100794.14;109523;1274;23926;-79
2023/06/22 10:12:13;;;;;;;;;;;;;;;;;;;;;
2023/06/22 10:15:49;;;;;;;;;;;;;;;;;;;;;
2023/06/22 10:19:43;;;;;;;;;;;;;;;;;;;;;
2023/06/22 10:23:41;;;;;;;4.10;2.40;;;;;;;29.70;30.77;100805.80;108493;1284;23059;-86
2023/06/22 10:27:32;;;;;;;2.70;2.50;;;;;;;29.55;30.50;100806.60;108492;1289;21709;-84
2023/06/22 10:31:12;;;;;;;4.10;3.00;;;;;;;29.62;30.61;100800.11;108145;1293;548137;-81
2023/06/22 10:34:01;;;;;;;5.00;2.20;;;;;;;29.47;30.62;100801.75;110060;1268;21981;-84
2023/06/22 10:36:38;;;;;;;8.90;3.00;;;;;;;29.45;30.74;100797.78;109983;1268;22084;-82
2023/06/22 10:39:20;;;;;;;5.80;3.00;;;;;;;29.51;30.84;100799.62;110302;1268;22448;-84
2023/06/22 10:42:02;;;;;;;2.80;2.20;;;;;;;29.58;30.86;100798.02;110704;1259;22182;-83
2023/06/22 10:44:41;;;;;;;5.10;2.80;;;;;;;29.66;30.70;100798.75;108007;1255;4312912;-81
2023/06/22 10:47:27;;;;;;;6.70;3.10;;;;;;;29.62;30.35;100792.40;111487;1255;22125;-84
2023/06/22 10:50:02;;;;;;;5.40;2.80;;;;;;;29.64;30.65;100794.86;111506;1253;21955;-84
2023/06/22 10:52:45;;;;;;;6.40;2.30;;;;;;;29.60;30.85;100799.53;111460;1255;22712;-86
2023/06/22 10:55:34;;;;;;;4.50;3.70;;;;;;;29.58;31.20;100796.91;111551;1255;22826;-81
2023/06/22 10:58:34;;;;;;;4.00;3.00;;;;;;;29.58;30.96;100785.77;111433;1255;23948;-83
2023/06/22 11:01:20;;;;;;;3.80;2.20;;;;;;;29.62;30.93;100779.70;111497;1255;21952;-83
2023/06/22 11:04:17;;;;;;;7.10;2.80;;;;;;;29.58;31.18;100786.30;111512;1255;22411;-83
2023/06/22 11:07:26;;;;;;;4.50;2.00;;;;;;;29.51;31.38;100782.44;111472;1255;21962;-83
2023/06/22 11:10:01;;;;;;;5.30;2.60;;;;;;;29.50;31.61;100783.45;111741;1253;22383;-83
2023/06/22 11:12:45;;;;;;;5.60;2.40;;;;;;;29.54;31.92;100790.51;111499;1254;21984;-84
2023/06/22 11:15:25;;;;;;;3.40;2.00;;;;;;;29.54;31.33;100788.27;111419;1254;21968;-84
2023/06/22 11:18:04;;;;;;;4.80;2.40;;;;;;;29.53;31.67;100784.19;111512;1254;21966;-83
2023/06/22 11:20:47;;;;;;;5.10;2.30;;;;;;;29.52;31.79;100785.40;111603;1254;22545;-85
2023/06/22 11:23:31;;;;;;;3.00;1.80;;;;;;;29.53;31.68;100782.78;111014;1259;22057;-85
2023/06/22 11:26:06;;;;;;;3.60;2.60;;;;;;;29.60;31.84;100783.60;111013;1259;22331;-85
2023/06/22 11:28:54;;;;;;;8.70;2.60;;;;;;;29.59;31.92;100787.53;111178;1259;22298;-86
2023/06/22 11:31:47;;;;;;;5.80;2.70;;;;;;;29.58;31.78;100780.78;110690;1259;21974;-85
2023/06/22 11:34:36;;;;;;;6.20;2.80;;;;;;;29.53;31.89;100780.08;110689;1260;21964;-86
2023/06/22 11:37:42;;;;;;;3.30;2.70;;;;;;;29.50;32.10;100781.52;110668;1262;22424;-84
2023/06/22 11:40:17;;;;;;;3.00;2.50;;;;;;;29.42;32.53;100778.48;110607;1262;21951;-84
2023/06/22 11:43:04;;;;;;;3.70;2.30;;;;;;;29.39;32.61;100778.90;111147;1257;21974;-86
2023/06/22 11:45:39;;;;;;;3.20;2.40;;;;;;;29.36;31.95;100770.52;110747;1256;21999;-83
2023/06/22 11:48:26;;;;;;;4.60;2.50;;;;;;;29.41;31.64;100776.77;110520;1263;21973;-85
2023/06/22 11:51:06;;;;;;;3.60;3.20;;;;;;;29.35;31.80;100775.59;110743;1263;23606;-85
2023/06/22 11:53:53;;;;;;;3.60;2.30;;;;;;;29.26;31.36;100762.85;110788;1263;21978;-86
2023/06/22 11:56:31;;;;;;;3.00;2.10;;;;;;;29.22;31.46;100768.07;110719;1262;21972;-83
2023/06/22 11:59:05;;;;;;;3.70;2.50;;;;;;;29.20;31.22;100767.77;110491;1263;21991;-85
2023/06/22 12:02:07;;;;;;;2.50;2.30;;;;;;;29.21;30.88;100759.23;110810;1259;22162;-85
2023/06/22 12:04:56;;;;;;;3.50;2.90;;;;;;;29.21;30.24;100755.85;111401;1254;23033;-86
2023/06/22 12:07:35;;;;;;;3.70;2.70;;;;;;;29.19;30.56;100752.66;111252;1258;21957;-86
2023/06/22 12:10:09;;;;;;;3.00;2.20;;;;;;;29.18;30.86;100747.39;111202;1258;22826;-85
2023/06/22 12:12:53;;;;;;;5.70;2.90;;;;;;;29.18;30.72;100737.70;110494;1264;21859;-83
2023/06/22 12:16:06;;;;;;;3.40;2.40;;;;;;;29.20;30.54;100730.33;110646;1264;22024;-83
2023/06/22 12:19:15;;;;;;;3.10;2.30;;;;;;;29.21;30.12;100710.86;109742;1270;22000;-83
2023/06/22 12:22:26;;;;;;;4.70;2.40;;;;;;;29.26;29.48;100706.24;109682;1270;22007;-83
2023/06/22 12:25:03;;;;;;;4.60;2.30;;;;;;;29.28;29.45;100699.36;109361;1270;21985;-84
2023/06/22 12:27:55;;;;;;;8.30;3.20;;;;;;;29.32;29.83;100700.39;109524;1267;23618;-83
2023/06/22 12:30:40;;;;;;;5.70;2.70;;;;;;;29.40;30.20;100699.13;109861;1264;24664;-80
2023/06/22 12:33:23;;;;;;;5.50;2.40;;;;;;;29.49;30.15;100699.02;110211;1264;21977;-80
2023/06/22 12:36:16;;;;;;;4.50;2.30;;;;;;;29.54;30.32;100694.84;110348;1251;22734;-80
2023/06/22 12:38:58;;;;;;;3.20;2.50;;;;;;;29.60;29.88;100700.79;110516;1264;22011;-81
2023/06/22 12:42:08;;;;;;;6.30;3.20;;;;;;;29.60;29.82;100700.09;110397;1264;22040;-82
2023/06/22 12:45:10;;;;;;;6.10;3.20;;;;;;;29.60;29.90;100703.79;111269;1261;22032;-79
2023/06/22 12:48:02;;;;;;;4.90;2.50;;;;;;;29.65;29.92;100705.91;111162;1260;21996;-81
2023/06/22 12:50:46;;;;;;;6.70;3.70;;;;;;;29.60;29.52;100694.84;110337;1262;21989;-80
2023/06/22 12:53:37;;;;;;;5.30;2.70;;;;;;;29.63;29.36;100708.85;110585;1265;21984;-81
2023/06/22 12:56:12;;;;;;;6.70;2.80;;;;;;;29.58;29.49;100711.18;110366;1270;22164;-81
2023/06/22 12:58:58;;;;;;;4.80;3.50;;;;;;;29.57;29.57;100708.04;110060;1269;21999;-81
2023/06/22 13:01:40;;;;;;;3.40;3.10;;;;;;;29.60;29.23;100703.52;110130;1269;22003;-80
2023/06/22 13:04:18;;;;;;;4.30;3.20;;;;;;;29.60;29.03;100703.28;109977;1270;23033;-80
2023/06/22 13:07:13;;;;;;;11.30;3.70;;;;;;;29.57;29.03;100696.57;109341;1271;22001;-86
2023/06/22 13:10:38;;;;;;;5.40;2.70;;;;;;;29.54;29.95;100698.06;109391;1276;22007;-88
2023/06/22 13:13:21;;;;;;;3.20;2.40;;;;;;;29.47;30.38;100696.27;109305;1276;22078;-83
2023/06/22 13:16:19;;;;;;;4.50;2.70;;;;;;;29.47;30.64;100691.42;109409;1272;21986;-83
2023/06/22 13:19:19;;;;;;;2.60;2.40;;;;;;;29.49;30.47;100687.45;109441;1261;23103;-88
2023/06/22 13:22:39;;;;;;;3.90;3.00;;;;;;;29.56;30.81;100686.73;109572;1273;22005;-85
2023/06/22 13:25:33;;;;;;;4.20;2.20;;;;;;;29.60;30.71;100679.45;109394;1273;21989;-84
2023/06/22 13:28:13;;;;;;;3.10;2.60;;;;;;;29.66;30.44;100679.05;109938;1267;23637;-84
2023/06/22 13:31:09;;;;;;;4.90;2.60;;;;;;;29.71;30.25;100674.08;110360;1260;21970;-83
2023/06/22 13:34:04;;;;;;;5.10;2.80;;;;;;;29.78;29.76;100666.67;110882;1256;21969;-84
2023/06/22 13:36:47;;;;;;;9.40;2.80;;;;;;;29.83;29.41;100667.71;111413;1251;22006;-82
2023/06/22 13:39:22;;;;;;;8.20;2.70;;;;;;;29.86;29.30;100669.30;111442;1254;21986;-86
2023/06/22 13:42:02;;;;;;;3.30;2.60;;;;;;;29.81;29.25;100667.25;111301;1255;23697;-83
2023/06/22 13:44:48;;;;;;;3.50;2.60;;;;;;;29.72;29.16;100664.65;111163;1255;21986;-84
2023/06/22 13:47:31;;;;;;;4.40;2.70;;;;;;;29.67;29.39;100667.67;111022;1259;21990;-81
2023/06/22 13:50:17;;;;;;;4.80;2.70;;;;;;;29.61;29.92;100670.20;110714;1263;22454;-83
2023/06/22 13:52:52;;;;;;;5.30;3.00;;;;;;;29.55;30.46;100673.31;110168;1264;22025;-84
2023/06/22 13:55:33;;;;;;;3.00;2.50;;;;;;;29.55;30.83;100672.45;110583;1264;23615;-82
2023/06/22 13:58:27;;;;;;;12.40;3.40;;;;;;;29.57;30.62;100669.23;110331;1264;23074;-82
2023/06/22 14:01:15;;;;;;;5.30;3.30;;;;;;;29.54;30.81;100671.88;110270;1264;21992;-83
2023/06/22 14:04:05;;;;;;;7.10;3.50;;;;;;;29.53;31.36;100666.39;110783;1264;21973;-84
2023/06/22 14:06:53;;;;;;;6.90;3.30;;;;;;;29.56;31.56;100664.67;110341;1265;22166;-84
2023/06/22 14:10:02;;;;;;;4.10;2.80;;;;;;;29.58;31.15;100662.27;111060;1247;23039;-82
2023/06/22 14:13:00;;;;;;;2.90;2.50;;;;;;;29.60;30.39;100659.48;111115;1260;21970;-84
2023/06/22 14:19:21;;;;;;;3.20;2.90;;;;;;;29.55;29.85;100664.88;110473;1264;21935;-81
2023/06/22 14:22:14;;;;;;;4.00;3.00;;;;;;;29.55;30.28;100662.63;110861;1264;23647;-81
2023/06/22 14:25:09;;;;;;;3.80;2.70;;;;;;;29.52;30.63;100660.79;111014;1259;22357;-82
2023/06/22 14:27:51;;;;;;;4.80;3.10;;;;;;;29.53;30.67;100659.44;110896;1260;23638;-82
2023/06/22 14:30:50;;;;;;;5.30;2.90;;;;;;;29.52;30.34;100652.52;111234;1257;21967;-83
2023/06/22 14:33:50;;;;;;;;;;;;;;;;;;;;;
2023/06/22 14:36:35;;;;;;;3.80;3.40;;;;;;;29.54;30.42;100651.20;111087;1257;21989;-82
2023/06/22 14:39:14;;;;;;;;;;;;;;;29.58;30.58;100653.48;111032;1258;21942;-82
2023/06/22 14:42:09;;;;;;;3.40;2.90;;;;;;;29.52;30.95;100647.73;111076;1257;23300;-83
2023/06/22 14:45:11;;;;;;;;;;;;;;;;;;;;;
2023/06/22 14:48:07;;;;;;;3.50;3.20;;;;;;;29.54;31.13;100642.30;111046;1260;23015;-81
2023/06/22 14:51:05;;;;;;;3.70;3.00;;;;;;;29.58;30.75;100638.36;111008;1254;24093;-81
2023/06/22 14:53:56;;;;;;;5.70;3.70;;;;;;;29.57;30.47;100636.75;111728;1253;23698;-81
2023/06/22 14:56:31;;;;;;;3.60;2.90;;;;;;;29.58;30.46;100638.73;111596;1255;21978;-81
2023/06/22 14:59:21;;;;;;;3.90;2.80;;;;;;;29.53;30.23;100634.66;111596;1254;22454;-84
2023/06/22 15:02:05;;;;;;;4.60;2.90;;;;;;;29.50;30.30;100633.54;111518;1256;21976;-85
2023/06/22 15:05:30;;;;;;;4.20;3.20;;;;;;;29.50;30.12;100632.92;111538;1251;21976;-88
2023/06/22 15:08:40;;;;;;;7.50;3.50;;;;;;;29.44;30.18;100635.34;111347;1258;21960;-80
2023/06/22 15:11:10;;;;;;;6.50;3.20;;;;;;;29.46;30.68;100635.43;110244;1264;21978;-76
2023/06/22 15:13:40;;;;;;;4.40;3.30;;;;;;;29.49;30.80;100627.84;110558;1265;21973;-79
2023/06/22 15:16:09;;;;;;;3.60;2.60;;;;;;;29.48;30.66;100625.82;110397;1265;23896;-79
2023/06/22 15:18:40;;;;;;;5.20;3.00;;;;;;;29.46;30.47;100622.42;110173;1265;21968;-79
2023/06/22 15:21:17;;;;;;;;;;;;;;;29.40;30.98;100622.15;110400;1265;22010;-80
2023/06/22 15:24:35;;;;;;;6.70;3.40;;;;;;;29.26;31.20;100625.56;110614;1262;23833;-79
2023/06/22 15:28:27;;;;;;;5.60;2.70;;;;;;;29.15;30.76;100624.29;110688;1263;23618;-77
2023/06/22 15:31:14;;;;;;;2.90;2.60;;;;;;;29.12;30.40;100625.73;110065;1261;21969;-80
2023/06/22 15:35:25;;;;;;;3.30;2.60;;;;;;;29.03;30.47;100625.56;109995;1267;22013;-79
2023/06/22 15:42:50;;;;;;;4.90;3.10;;;;;;;28.94;30.71;100629.96;108910;1281;23615;-82
2023/06/22 15:47:51;;;;;;;;;;;;;;;;;;;;;
2023/06/22 15:51:43;;;;;;;3.90;3.20;;;;;;;28.79;30.89;100626.98;108555;1288;21965;-80
2023/06/22 15:55:35;;;;;;;4.10;3.10;;;;;;;28.73;30.83;100619.63;107933;1294;22017;-79
2023/06/22 15:58:23;;;;;;;4.50;2.70;;;;;;;28.82;30.56;100613.30;107934;1288;22114;-79
2023/06/22 16:01:21;;;;;;;6.20;3.90;;;;;;;28.81;30.49;100615.01;107983;1294;22690;-79
2023/06/22 16:05:00;;;;;;;4.90;3.00;;;;;;;28.78;30.58;100613.81;107210;1301;22806;-81
2023/06/22 16:08:11;;;;;;;;;;;;;;;;;;;;;
2023/06/22 16:10:54;;;;;;;;;;;;;;;28.77;30.68;100598.42;107742;1298;22001;-79
2023/06/22 16:14:08;;;;;;;5.60;3.50;;;;;;;28.66;31.00;100597.30;107955;1296;21994;-80
2023/06/22 16:17:37;;;;;;;5.40;3.00;;;;;;;28.61;31.17;100592.67;108775;1276;23647;-79
2023/06/22 16:20:16;;;;;;;8.00;3.40;;;;;;;28.61;30.62;100590.53;109102;1276;22742;-80
2023/06/22 16:23:03;;;;;;;;;;;;;;;;;;;;;
2023/06/22 16:26:11;;;;;;;4.40;2.80;;;;;;;28.60;30.28;100593.63;109217;1270;21991;-85
2023/06/22 16:29:24;;;;;;;7.80;4.00;;;;;;;28.61;30.24;100592.98;109965;1270;22714;-84
2023/06/22 16:32:41;;;;;;;8.30;3.70;;;;;;;28.60;30.36;100589.87;109855;1268;23599;-84
2023/06/22 16:35:32;;;;;;;6.40;3.60;;;;;;;28.58;30.82;100589.80;110312;1260;21987;-83
2023/06/22 16:38:23;;;;;;;4.40;3.50;;;;;;;28.57;31.24;100582.34;110736;1261;22056;-83
2023/06/22 16:41:37;;;;;;;;;;;;;;;;;;;;;
2023/06/22 16:44:36;;;;;;;4.30;2.90;;;;;;;28.56;30.71;100577.10;110871;1259;22427;-83
2023/06/22 16:47:47;;;;;;;3.50;3.10;;;;;;;28.54;30.46;100574.99;110756;1264;23756;-83
2023/06/22 16:50:45;;;;;;;3.60;2.90;;;;;;;28.51;30.10;100564.20;110528;1264;21975;-84
2023/06/22 16:53:21;;;;;;;9.90;9.10;;;;;;;28.50;30.00;100556.50;110507;1264;22064;-84
2023/06/22 16:56:19;;;;;;;5.60;3.50;;;;;;;28.50;30.14;100550.92;110448;1264;21983;-83
2023/06/22 16:58:58;;;;;;;4.50;3.10;;;;;;;28.47;30.30;100543.13;110658;1264;22707;-83
2023/06/22 17:02:11;;;;;;;12.20;3.70;;;;;;;28.44;30.51;100540.86;109869;1269;21992;-83
2023/06/22 17:05:20;;;;;;;5.30;2.90;;;;;;;28.37;30.33;100536.37;110573;1264;22023;-83
2023/06/22 17:09:10;;;;;;;;;;;;;;;;;;;;;
2023/06/22 17:12:00;;;;;;;5.20;3.40;;;;;;;28.23;30.68;100530.20;110002;1270;21964;-83
2023/06/22 17:14:44;;;;;;;6.10;3.90;;;;;;;28.18;31.04;100523.94;109318;1275;22006;-84
2023/06/22 17:18:28;;;;;;;;;;;;;;;;;;;;;
2023/06/22 17:22:10;;;;;;;4.10;3.20;;;;;;;28.16;31.06;100523.64;109272;1279;23721;-86
2023/06/22 17:25:14;;;;;;;6.20;3.10;;;;;;;28.10;30.79;100527.02;108924;1282;21988;-85
2023/06/22 17:28:43;;;;;;;3.00;2.50;;;;;;;28.06;30.76;100519.55;109246;1277;22038;-84
2023/06/22 17:32:19;;;;;;;;;;;;;;;;;;;;;
2023/06/22 17:36:07;;;;;;;;;;;;;;;;;;;;;
2023/06/22 17:40:03;;;;;;;;;;;;;;;;;;;;;
2023/06/22 17:44:04;;;;;;;;;;;;;;;;;;;;;
2023/06/22 17:47:50;;;;;;;5.20;2.90;;;;;;;27.94;31.11;100514.67;107236;1301;22034;-84
2023/06/22 17:50:41;;;;;;;5.10;3.70;;;;;;;27.92;31.25;100513.74;107080;1304;22678;-85
2023/06/22 17:53:46;;;;;;;;;;;;;;;;;;;;;
2023/06/22 17:56:48;;;;;;;;;;;;;;;;;;;;;
2023/06/22 17:59:34;;;;;;;;;;;;;;;;;;;;;
2023/06/22 18:02:38;;;;;;;3.90;3.00;;;;;;;27.72;32.27;100498.71;107966;1290;23180;-78
2023/06/22 18:05:49;;;;;;;7.20;5.10;;;;;;;27.66;32.54;100493.52;108066;1290;22498;-80
2023/06/22 18:08:42;;;;;;;5.90;2.90;;;;;;;27.54;32.98;100484.22;108388;1284;21998;-78
2023/06/22 18:11:31;;;;;;;4.90;3.20;;;;;;;27.52;33.23;100486.47;108967;1276;21983;-79
2023/06/22 18:15:51;;;;;;;4.40;3.20;;;;;;;27.42;33.58;100484.60;109136;1276;22055;-80
2023/06/22 18:19:44;;;;;;;4.70;3.60;;;;;;;27.27;33.92;100481.40;108356;1283;23780;-79
2023/06/22 18:22:49;;;;;;;12.10;9.20;;;;;;;27.21;34.18;100484.65;108779;1278;22252;-80
2023/06/22 18:25:44;;;;;;;5.10;3.90;;;;;;;27.17;34.26;100484.98;109556;1271;24386;-79
2023/06/22 18:28:30;;;;;;;9.00;8.20;;;;;;;27.14;34.45;100481.25;109880;1271;21979;-79
2023/06/22 18:31:25;;;;;;;6.70;4.50;;;;;;;27.03;34.83;100476.92;109328;1264;23760;-79
2023/06/22 18:34:15;;;;;;;5.00;4.40;;;;;;;26.96;35.02;100474.06;109147;1276;24362;-81
2023/06/22 18:37:50;;;;;;;5.50;4.70;;;;;;;26.85;35.46;100471.16;108983;1282;21985;-80
2023/06/22 18:40:35;;;;;;;4.40;3.60;;;;;;;26.75;35.68;100463.80;108779;1280;22005;-80
2023/06/22 18:43:46;;;;;;;5.80;4.70;;;;;;;26.67;35.98;100460.88;108726;1282;21983;-81
2023/06/22 18:47:36;;;;;;;10.40;5.60;;;;;;;26.54;36.06;100460.02;108780;1283;22014;-80
2023/06/22 18:50:45;;;;;;;8.30;4.60;;;;;;;26.43;36.31;100457.08;108769;1282;22014;-79
2023/06/22 18:53:33;;;;;;;7.80;4.70;;;;;;;26.35;36.58;100454.30;108769;1282;22014;-80
2023/06/22 18:56:22;;;;;;;9.30;8.30;;;;;;;26.29;36.65;100456.00;110714;1254;21997;-79
2023/06/22 19:02:52;;;;;;;8.20;5.40;;;;;;;26.12;37.19;100450.65;110437;1264;21991;-79
2023/06/22 19:05:46;;;;;;;7.90;5.40;;;;;;;26.02;37.50;100451.27;110674;1263;22996;-82
2023/06/22 19:09:29;;;;;;;8.40;5.90;;;;;;;25.96;37.70;100453.28;110406;1264;21966;-83
2023/06/22 19:12:33;;;;;;;8.40;6.80;;;;;;;25.86;37.90;100454.95;110603;1263;21982;-85
2023/06/22 19:15:52;;;;;;;7.50;5.90;;;;;;;25.83;38.09;100451.21;110274;1263;23224;-80
2023/06/22 19:19:16;;;;;;;10.30;6.30;;;;;;;25.78;38.18;100448.13;110469;1259;22741;-80